Time;durP1;ratioP1;P1;durP2;ratioP2;P2;SDS_P1;SDS_P2;PMS_P1;PMS_P2;Temp;Humidity;BMP_temperature;BMP_pressure;BME280_temperature;BME280_humidity;BME280_pressure;Samples;Min_cycle;Max_cycle;Signal;HPM_P1;HPM_P2
2024/04/24 00:00:27;;;;;;;14.20;8.87;;;;;21.90;100114.00;;;;2218512;26;20258;-65
2024/04/24 00:01:28;;;;;;;16.20;10.17;;;;;21.90;100113.00;;;;2220389;26;20297;-58
2024/04/24 00:02:28;;;;;;;16.67;9.63;;;;;21.90;100118.00;;;;2206053;26;20263;-59
2024/04/24 00:03:28;;;;;;;14.90;10.23;;;;;21.90;100114.00;;;;2219427;26;20239;-59
2024/04/24 00:04:29;;;;;;;14.70;9.77;;;;;21.90;100112.00;;;;2216169;26;22067;-63
2024/04/24 00:05:32;;;;;;;16.30;10.40;;;;;21.90;100103.00;;;;2219621;26;20255;-63
2024/04/24 00:06:32;;;;;;;13.57;10.23;;;;;21.90;100112.00;;;;2217941;26;20251;-58
2024/04/24 00:07:33;;;;;;;13.97;9.23;;;;;21.80;100110.00;;;;2207943;26;20255;-59
2024/04/24 00:08:33;;;;;;;12.23;9.13;;;;;21.90;100102.00;;;;2209333;26;20323;-59
2024/04/24 00:09:33;;;;;;;14.90;9.57;;;;;21.90;100110.00;;;;2208273;26;20252;-59
2024/04/24 00:10:34;;;;;;;13.63;9.37;;;;;21.90;100099.00;;;;2214938;26;20251;-59
2024/04/24 00:11:34;;;;;;;15.80;8.97;;;;;21.90;100097.00;;;;2217183;26;20258;-59
2024/04/24 00:12:34;;;;;;;13.07;8.83;;;;;21.90;100094.00;;;;2210554;26;20255;-58
2024/04/24 00:13:35;;;;;;;14.83;10.00;;;;;21.80;100106.00;;;;2222214;26;20255;-57
2024/04/24 00:14:35;;;;;;;12.70;8.13;;;;;21.90;100096.00;;;;2217608;26;20303;-58
2024/04/24 00:15:35;;;;;;;11.47;8.27;;;;;21.90;100103.00;;;;2219320;26;20252;-58
2024/04/24 00:16:36;;;;;;;13.23;9.33;;;;;21.80;100099.00;;;;2218147;26;20293;-59
2024/04/24 00:17:36;;;;;;;14.07;8.63;;;;;21.90;100100.00;;;;2206400;26;20301;-59
2024/04/24 00:18:36;;;;;;;11.00;7.50;;;;;21.90;100100.00;;;;2216570;26;20736;-59
2024/04/24 00:19:37;;;;;;;13.60;9.30;;;;;21.80;100095.00;;;;2219386;26;20267;-59
2024/04/24 00:20:38;;;;;;;13.98;9.00;;;;;21.80;100098.00;;;;2218282;26;20332;-61
2024/04/24 00:21:38;;;;;;;13.20;7.90;;;;;21.80;100097.00;;;;2215917;26;20255;-59
2024/04/24 00:22:38;;;;;;;13.77;7.70;;;;;21.80;100094.00;;;;2209372;26;20352;-59
2024/04/24 00:23:39;;;;;;;11.40;7.57;;;;;21.80;100091.00;;;;2217213;26;20251;-59
2024/04/24 00:24:39;;;;;;;12.80;8.50;;;;;21.80;100092.00;;;;2218678;26;20305;-59
2024/04/24 00:25:39;;;;;;;10.70;7.53;;;;;21.80;100101.00;;;;2217933;26;20251;-58
2024/04/24 00:26:40;;;;;;;12.63;7.63;;;;;21.80;100092.00;;;;2217598;26;20262;-58
2024/04/24 00:27:41;;;;;;;12.70;8.27;;;;;21.80;100098.00;;;;2209926;26;20264;-59
2024/04/24 00:28:41;;;;;;;12.93;7.93;;;;;21.80;100087.00;;;;2218326;26;20247;-60
2024/04/24 00:29:41;;;;;;;10.87;7.63;;;;;21.80;100084.00;;;;2220819;26;20263;-58
2024/04/24 00:30:41;;;;;;;9.20;6.47;;;;;21.80;100088.00;;;;2220235;26;20267;-58
2024/04/24 00:31:42;;;;;;;11.47;7.40;;;;;21.80;100077.00;;;;2219551;26;20297;-59
2024/04/24 00:32:42;;;;;;;12.20;7.23;;;;;21.80;100087.00;;;;2208624;26;21025;-58
2024/04/24 00:33:42;;;;;;;11.30;7.13;;;;;21.80;100087.00;;;;2217024;26;20255;-59
2024/04/24 00:34:43;;;;;;;9.93;7.07;;;;;21.80;100080.00;;;;2215222;26;20294;-58
2024/04/24 00:35:43;;;;;;;10.20;7.30;;;;;21.80;100079.00;;;;2212067;26;20259;-59
2024/04/24 00:36:44;;;;;;;11.93;7.63;;;;;21.80;100070.00;;;;2216656;26;20296;-59
2024/04/24 00:37:44;;;;;;;9.80;6.83;;;;;21.80;100075.00;;;;2218452;26;20294;-57
2024/04/24 00:38:44;;;;;;;11.30;6.97;;;;;21.70;100074.00;;;;2218765;26;20364;-58
2024/04/24 00:39:46;;;;;;;10.23;7.23;;;;;21.70;100077.00;;;;2218943;26;20259;-59
2024/04/24 00:40:46;;;;;;;9.80;6.28;;;;;21.80;100066.00;;;;2217728;26;20259;-57
2024/04/24 00:41:46;;;;;;;11.87;7.47;;;;;21.70;100061.00;;;;2220427;26;20254;-59
2024/04/24 00:42:47;;;;;;;10.10;6.87;;;;;21.70;100039.00;;;;2219547;26;20655;-58
2024/04/24 00:43:47;;;;;;;9.07;6.37;;;;;21.70;100064.00;;;;2219043;26;20356;-59
2024/04/24 00:44:48;;;;;;;11.43;7.17;;;;;21.70;100069.00;;;;2215093;26;20310;-59
2024/04/24 00:45:48;;;;;;;9.30;6.33;;;;;21.70;100059.00;;;;2219186;26;20260;-59
2024/04/24 00:46:48;;;;;;;8.00;5.80;;;;;21.70;100070.00;;;;2210264;26;20668;-58
2024/04/24 00:47:49;;;;;;;10.03;6.80;;;;;21.70;100056.00;;;;2216280;26;20596;-59
2024/04/24 00:48:49;;;;;;;9.33;5.80;;;;;21.70;100040.00;;;;2189108;26;21195;-59
2024/04/24 00:49:50;;;;;;;9.57;6.30;;;;;21.70;100057.00;;;;2190934;26;20369;-59
2024/04/24 00:50:50;;;;;;;9.10;5.73;;;;;21.70;100039.00;;;;2196061;26;20253;-58
2024/04/24 00:51:50;;;;;;;10.07;6.23;;;;;21.70;100054.00;;;;2193653;26;20303;-59
2024/04/24 00:52:51;;;;;;;8.97;6.00;;;;;21.70;100046.00;;;;2217111;26;20580;-58
2024/04/24 00:53:51;;;;;;;8.80;5.80;;;;;21.70;100058.00;;;;2218460;26;20657;-58
2024/04/24 00:54:51;;;;;;;9.40;5.93;;;;;21.70;100050.00;;;;2217109;26;20601;-59
2024/04/24 00:55:52;;;;;;;9.50;5.53;;;;;21.70;100054.00;;;;2222848;26;20599;-59
2024/04/24 00:56:52;;;;;;;9.97;6.67;;;;;21.70;100050.00;;;;2208415;26;20619;-59
2024/04/24 00:57:53;;;;;;;8.90;6.37;;;;;21.70;100046.00;;;;2228769;26;20707;-59
2024/04/24 00:58:53;;;;;;;11.87;6.67;;;;;21.70;100045.00;;;;2203577;26;20701;-57
2024/04/24 00:59:53;;;;;;;9.60;6.13;;;;;21.70;100044.00;;;;2173186;27;20360;-58
2024/04/24 01:00:54;;;;;;;7.67;5.40;;;;;21.70;100039.00;;;;2189328;26;20249;-58
2024/04/24 01:01:54;;;;;;;8.10;5.80;;;;;21.70;100044.00;;;;2192164;26;20922;-58
2024/04/24 01:02:55;;;;;;;10.23;6.40;;;;;21.70;100035.00;;;;2217473;26;20244;-59
2024/04/24 01:03:55;;;;;;;11.40;6.70;;;;;21.70;100041.00;;;;2215771;26;20305;-58
2024/04/24 01:04:55;;;;;;;9.80;5.83;;;;;21.70;100090.00;;;;2217699;26;20251;-58
2024/04/24 01:05:55;;;;;;;11.73;6.13;;;;;21.70;100045.00;;;;2218875;26;20298;-59
2024/04/24 01:06:56;;;;;;;9.77;6.50;;;;;21.70;100048.00;;;;2190656;26;20705;-59
2024/04/24 01:07:56;;;;;;;8.77;5.43;;;;;21.60;100037.00;;;;2217589;26;20899;-58
2024/04/24 01:08:57;;;;;;;8.30;5.33;;;;;21.60;100041.00;;;;2216978;26;20247;-59
2024/04/24 01:09:57;;;;;;;9.33;5.93;;;;;21.70;100042.00;;;;2204041;26;20617;-58
2024/04/24 01:10:58;;;;;;;8.30;5.70;;;;;21.70;100041.00;;;;2215770;26;20662;-59
2024/04/24 01:11:58;;;;;;;9.77;5.63;;;;;21.70;100036.00;;;;2208472;26;20946;-59
2024/04/24 01:12:58;;;;;;;8.13;5.63;;;;;21.60;100040.00;;;;2218833;26;20525;-59
2024/04/24 01:13:59;;;;;;;8.20;4.57;;;;;21.70;100047.00;;;;2217828;26;20251;-58
2024/04/24 01:14:59;;;;;;;8.13;5.00;;;;;21.70;100043.00;;;;2217991;26;20247;-58
2024/04/24 01:16:04;;;;;;;7.70;4.87;;;;;21.60;100033.00;;;;2220553;26;20263;-58
2024/04/24 01:17:04;;;;;;;8.40;5.32;;;;;21.60;100038.00;;;;2184937;26;20287;-57
2024/04/24 01:18:05;;;;;;;6.57;4.30;;;;;21.60;100048.00;;;;2202941;26;20362;-59
2024/04/24 01:19:41;;;;;;;7.30;5.17;;;;;21.60;100031.00;;;;2225246;26;20289;-58
2024/04/24 01:20:42;;;;;;;8.20;5.53;;;;;21.60;100027.00;;;;2199715;26;20264;-59
2024/04/24 01:21:52;;;;;;;7.40;4.77;;;;;21.60;100036.00;;;;2195423;26;20784;-59
2024/04/24 01:23:01;;;;;;;7.57;4.88;;;;;21.60;100017.00;;;;2186052;26;20317;-58
2024/04/24 01:24:25;;;;;;;7.60;4.90;;;;;21.60;100028.00;;;;2205370;26;20252;-59
2024/04/24 01:25:53;;;;;;;7.25;4.78;;;;;21.60;100024.00;;;;2199685;26;20247;-58
2024/04/24 01:26:53;;;;;;;6.25;4.35;;;;;21.60;100030.00;;;;2205669;26;20335;-59
2024/04/24 01:27:54;;;;;;;7.13;4.77;;;;;21.60;100023.00;;;;2206817;26;20764;-59
2024/04/24 01:28:54;;;;;;;6.07;4.00;;;;;21.60;100022.00;;;;2229836;26;21138;-59
2024/04/24 01:29:54;;;;;;;9.80;4.67;;;;;21.60;100011.00;;;;2216759;26;20732;-58
2024/04/24 01:30:55;;;;;;;6.23;4.30;;;;;21.60;100022.00;;;;2202715;26;20729;-57
2024/04/24 01:31:55;;;;;;;7.17;4.40;;;;;21.60;100011.00;;;;2216583;26;20828;-58
2024/04/24 01:32:55;;;;;;;7.40;4.10;;;;;21.50;100007.00;;;;2208774;26;20252;-58
2024/04/24 01:33:56;;;;;;;7.60;4.43;;;;;21.60;100003.00;;;;2219531;26;20298;-58
2024/04/24 01:34:56;;;;;;;6.87;5.03;;;;;21.50;99998.00;;;;2215281;26;20251;-59
2024/04/24 01:35:57;;;;;;;11.13;4.70;;;;;21.60;99996.00;;;;2219082;26;20252;-59
2024/04/24 01:36:57;;;;;;;7.30;4.50;;;;;21.60;100045.00;;;;2205704;26;20879;-59
2024/04/24 01:37:57;;;;;;;7.93;4.33;;;;;21.50;100004.00;;;;2205073;26;20708;-58
2024/04/24 01:38:58;;;;;;;9.10;5.43;;;;;21.50;99999.00;;;;2218092;26;20638;-58
2024/04/24 01:39:58;;;;;;;7.93;4.47;;;;;21.50;99999.00;;;;2212031;26;21108;-58
2024/04/24 01:40:58;;;;;;;6.70;4.10;;;;;21.50;100002.00;;;;2215171;26;21118;-59
2024/04/24 01:41:58;;;;;;;7.37;4.50;;;;;21.50;99992.00;;;;2214646;26;20769;-59
2024/04/24 01:42:59;;;;;;;8.53;4.43;;;;;21.50;99989.00;;;;2218203;26;20967;-59
2024/04/24 01:43:59;;;;;;;5.70;3.53;;;;;21.50;99988.00;;;;2218029;26;20251;-59
2024/04/24 01:44:59;;;;;;;6.37;4.20;;;;;21.50;100037.00;;;;2213004;26;20642;-59
2024/04/24 01:46:00;;;;;;;5.53;3.23;;;;;21.50;99992.00;;;;2218356;26;20821;-58
2024/04/24 01:47:00;;;;;;;7.50;4.57;;;;;21.50;99989.00;;;;2206564;26;20789;-58
2024/04/24 01:48:01;;;;;;;7.20;3.90;;;;;21.50;99982.00;;;;2211083;26;20254;-59
2024/04/24 01:49:01;;;;;;;6.80;4.27;;;;;21.50;99982.00;;;;2217227;26;20298;-59
2024/04/24 01:50:01;;;;;;;4.97;3.10;;;;;21.50;99977.00;;;;2230014;26;20250;-59
2024/04/24 01:51:02;;;;;;;6.43;3.50;;;;;21.50;99986.00;;;;2221105;26;20251;-59
2024/04/24 01:52:02;;;;;;;4.90;3.40;;;;;21.50;99980.00;;;;2195162;26;20969;-58
2024/04/24 01:53:03;;;;;;;7.50;4.20;;;;;21.50;99985.00;;;;2226275;26;20254;-57
2024/04/24 01:54:04;;;;;;;7.80;4.03;;;;;21.50;99983.00;;;;2207900;26;20252;-59
2024/04/24 01:55:04;;;;;;;5.90;3.90;;;;;21.50;99976.00;;;;2217255;26;20247;-59
2024/04/24 01:56:05;;;;;;;5.63;3.33;;;;;21.50;99978.00;;;;2222815;26;20250;-58
2024/04/24 01:57:05;;;;;;;4.90;3.00;;;;;21.50;99978.00;;;;2211776;26;20696;-58
2024/04/24 01:58:05;;;;;;;6.53;4.00;;;;;21.50;99992.00;;;;2240120;26;20285;-59
2024/04/24 01:59:06;;;;;;;5.87;3.60;;;;;21.50;99977.00;;;;2224941;26;20248;-59
2024/04/24 02:00:07;;;;;;;5.67;3.70;;;;;21.50;99976.00;;;;2217530;26;20247;-62
2024/04/24 02:01:07;;;;;;;5.57;3.43;;;;;21.50;99978.00;;;;2218481;26;20255;-59
2024/04/24 02:02:07;;;;;;;5.50;3.30;;;;;21.50;99982.00;;;;2208211;26;20542;-58
2024/04/24 02:03:08;;;;;;;4.73;3.70;;;;;21.50;99978.00;;;;2216971;26;20302;-59
2024/04/24 02:04:08;;;;;;;6.03;3.80;;;;;21.50;99968.00;;;;2220201;26;20277;-59
2024/04/24 02:05:08;;;;;;;5.33;3.37;;;;;21.50;99971.00;;;;2217563;26;20344;-58
2024/04/24 02:06:09;;;;;;;6.37;3.60;;;;;21.50;99988.00;;;;2217822;26;20755;-58
2024/04/24 02:07:09;;;;;;;5.10;3.30;;;;;21.50;99973.00;;;;2207510;26;20580;-57
2024/04/24 02:08:09;;;;;;;6.27;3.23;;;;;21.50;99980.00;;;;2215446;26;20778;-59
2024/04/24 02:09:10;;;;;;;5.97;3.60;;;;;21.50;99970.00;;;;2224844;26;20982;-59
2024/04/24 02:10:10;;;;;;;6.10;3.50;;;;;21.50;99980.00;;;;2216096;26;20255;-59
2024/04/24 02:11:16;;;;;;;5.97;3.57;;;;;21.50;99978.00;;;;2217761;26;20317;-59
2024/04/24 02:12:16;;;;;;;5.75;3.55;;;;;21.50;99970.00;;;;2204918;26;20389;-57
2024/04/24 02:13:16;;;;;;;4.77;2.80;;;;;21.50;99966.00;;;;2213316;26;20348;-58
2024/04/24 02:14:17;;;;;;;7.30;3.43;;;;;21.50;99973.00;;;;2225434;26;20262;-60
2024/04/24 02:15:17;;;;;;;5.70;3.10;;;;;21.50;99972.00;;;;2214990;26;20252;-60
2024/04/24 02:16:17;;;;;;;5.57;3.30;;;;;21.50;99968.00;;;;2217176;26;20297;-57
2024/04/24 02:17:18;;;;;;;4.83;2.87;;;;;21.50;99970.00;;;;2214143;26;20266;-58
2024/04/24 02:18:18;;;;;;;6.40;3.17;;;;;21.50;99968.00;;;;2216799;26;20301;-58
2024/04/24 02:19:18;;;;;;;4.60;3.00;;;;;21.50;99958.00;;;;2216029;26;20255;-59
2024/04/24 02:20:19;;;;;;;5.73;2.60;;;;;21.40;99966.00;;;;2217403;26;20254;-58
2024/04/24 02:21:19;;;;;;;5.67;3.17;;;;;21.50;99961.00;;;;2218358;26;20346;-59
2024/04/24 02:22:19;;;;;;;6.10;3.30;;;;;21.40;99965.00;;;;2207951;26;20259;-58
2024/04/24 02:23:23;;;;;;;5.43;2.77;;;;;21.40;99958.00;;;;2219295;26;20306;-59
2024/04/24 02:25:43;;;;;;;4.30;2.78;;;;;21.40;99955.00;;;;2216401;26;20247;-59
2024/04/24 02:26:43;;;;;;;4.95;3.65;;;;;21.40;99959.00;;;;2215438;26;20259;-60
2024/04/24 02:27:43;;;;;;;6.23;3.10;;;;;21.40;99961.00;;;;2216156;26;21102;-59
2024/04/24 02:28:44;;;;;;;5.70;3.17;;;;;21.40;99948.00;;;;2218759;26;20603;-61
2024/04/24 02:29:44;;;;;;;6.70;3.00;;;;;21.40;99976.00;;;;2217259;26;20672;-59
2024/04/24 02:30:44;;;;;;;5.07;3.40;;;;;21.40;99967.00;;;;2218560;26;21033;-58
2024/04/24 02:31:45;;;;;;;5.00;3.10;;;;;21.40;99953.00;;;;2214245;26;21296;-57
2024/04/24 02:32:45;;;;;;;5.40;3.20;;;;;21.40;99949.00;;;;2217139;26;21168;-58
2024/04/24 02:33:46;;;;;;;5.20;3.37;;;;;21.40;99944.00;;;;2215159;26;20751;-58
2024/04/24 02:34:46;;;;;;;4.40;2.53;;;;;21.40;99943.00;;;;2210301;26;20533;-59
2024/04/24 02:35:46;;;;;;;4.30;2.70;;;;;21.40;99946.00;;;;2216704;26;20267;-59
2024/04/24 02:36:47;;;;;;;5.23;2.70;;;;;21.40;99948.00;;;;2205139;26;20251;-58
2024/04/24 02:37:47;;;;;;;5.70;3.27;;;;;21.40;99956.00;;;;2218453;26;20255;-59
2024/04/24 02:38:47;;;;;;;4.63;3.00;;;;;21.40;99952.00;;;;2217761;26;20248;-59
2024/04/24 02:39:48;;;;;;;5.37;2.70;;;;;21.40;99945.00;;;;2215718;26;20259;-59
2024/04/24 02:40:48;;;;;;;6.10;2.83;;;;;21.40;99943.00;;;;2218298;26;20307;-59
2024/04/24 02:41:48;;;;;;;3.93;2.17;;;;;21.40;99946.00;;;;2204868;26;20252;-59
2024/04/24 02:42:49;;;;;;;4.17;2.50;;;;;20.90;99945.00;;;;2220312;26;20255;-59
2024/04/24 02:43:49;;;;;;;5.03;2.80;;;;;21.40;99940.00;;;;2221974;26;20297;-58
2024/04/24 02:44:49;;;;;;;6.07;2.77;;;;;21.40;99937.00;;;;2219100;26;20250;-58
2024/04/24 02:45:50;;;;;;;5.27;3.10;;;;;21.40;99937.00;;;;2222852;26;20796;-58
2024/04/24 02:46:50;;;;;;;5.33;3.00;;;;;21.40;99934.00;;;;2206378;26;20252;-59
2024/04/24 02:47:50;;;;;;;5.83;3.00;;;;;21.40;99945.00;;;;2222267;26;20247;-59
2024/04/24 02:48:51;;;;;;;4.77;2.87;;;;;21.40;99940.00;;;;2217955;26;20302;-59
2024/04/24 02:49:53;;;;;;;3.90;2.37;;;;;21.40;99935.00;;;;2217332;26;20294;-59
2024/04/24 02:50:53;;;;;;;5.30;2.38;;;;;21.40;99937.00;;;;2215932;26;20256;-58
2024/04/24 02:51:54;;;;;;;4.17;2.20;;;;;21.40;99931.00;;;;2204551;26;20387;-58
2024/04/24 02:52:54;;;;;;;5.23;2.60;;;;;21.30;99933.00;;;;2225818;26;20459;-58
2024/04/24 02:53:54;;;;;;;4.50;2.70;;;;;21.30;99939.00;;;;2218852;26;20259;-59
2024/04/24 02:54:55;;;;;;;6.10;2.60;;;;;21.30;99934.00;;;;2216921;26;20251;-59
2024/04/24 02:55:55;;;;;;;5.37;2.70;;;;;21.30;99925.00;;;;2216730;26;20251;-58
2024/04/24 02:56:55;;;;;;;4.33;2.73;;;;;21.40;99929.00;;;;2207446;26;20251;-59
2024/04/24 02:57:56;;;;;;;4.00;2.40;;;;;21.30;99925.00;;;;2224910;26;20289;-59
2024/04/24 02:58:56;;;;;;;4.30;2.60;;;;;21.30;99925.00;;;;2216891;26;20247;-58
2024/04/24 02:59:56;;;;;;;6.03;2.63;;;;;21.40;99926.00;;;;2218165;26;20251;-58
2024/04/24 03:00:56;;;;;;;4.50;2.70;;;;;21.40;99922.00;;;;2216573;26;20255;-58
2024/04/24 03:01:57;;;;;;;4.80;2.70;;;;;21.40;99918.00;;;;2208451;26;20255;-59
2024/04/24 03:02:57;;;;;;;4.20;2.43;;;;;21.40;99920.00;;;;2214976;26;20259;-59
2024/04/24 03:03:57;;;;;;;4.80;2.50;;;;;21.40;99928.00;;;;2217463;26;20294;-59
2024/04/24 03:04:58;;;;;;;4.87;2.77;;;;;21.30;99920.00;;;;2215483;26;20260;-59
2024/04/24 03:05:58;;;;;;;5.27;2.67;;;;;21.40;99952.00;;;;2216316;26;20382;-59
2024/04/24 03:06:58;;;;;;;4.43;2.70;;;;;21.40;99917.00;;;;2207463;26;20712;-57
2024/04/24 03:07:59;;;;;;;5.30;2.37;;;;;21.30;99930.00;;;;2214477;26;20793;-59
2024/04/24 03:08:59;;;;;;;5.30;2.40;;;;;21.30;99917.00;;;;2214732;26;20744;-59
2024/04/24 03:09:59;;;;;;;4.70;2.40;;;;;21.30;99912.00;;;;2215458;26;20751;-59
2024/04/24 03:11:01;;;;;;;4.50;2.97;;;;;21.30;99908.00;;;;2214935;26;20605;-59
2024/04/24 03:12:01;;;;;;;3.45;1.95;;;;;21.30;99908.00;;;;2208616;26;20294;-58
2024/04/24 03:13:01;;;;;;;3.57;2.40;;;;;21.20;99909.00;;;;2216286;26;20251;-59
2024/04/24 03:14:02;;;;;;;4.70;2.50;;;;;21.30;99911.00;;;;2204091;26;20366;-59
2024/04/24 03:15:02;;;;;;;4.50;2.60;;;;;21.30;99910.00;;;;2208550;26;20266;-58
2024/04/24 03:16:03;;;;;;;4.93;2.50;;;;;21.30;99911.00;;;;2215862;26;20744;-59
2024/04/24 03:17:03;;;;;;;5.03;2.10;;;;;21.30;99905.00;;;;2204763;26;20244;-59
2024/04/24 03:18:05;;;;;;;3.60;2.07;;;;;21.30;99902.00;;;;2209270;26;20326;-59
2024/04/24 03:19:05;;;;;;;4.82;2.30;;;;;21.30;99900.00;;;;2226961;26;20695;-60
2024/04/24 03:20:06;;;;;;;3.97;1.83;;;;;21.30;99896.00;;;;2213237;26;20353;-60
2024/04/24 03:21:06;;;;;;;4.27;1.67;;;;;21.30;99891.00;;;;2216995;26;20303;-59
2024/04/24 03:22:06;;;;;;;3.20;1.77;;;;;21.30;99897.00;;;;2200090;26;20310;-60
2024/04/24 03:23:07;;;;;;;4.00;2.17;;;;;21.30;99901.00;;;;2216069;26;20286;-59
2024/04/24 03:24:07;;;;;;;4.93;2.20;;;;;21.30;99885.00;;;;2215147;26;20294;-60
2024/04/24 03:25:07;;;;;;;4.77;2.13;;;;;21.30;99895.00;;;;2216080;26;20319;-60
2024/04/24 03:26:08;;;;;;;3.97;2.20;;;;;21.30;99892.00;;;;2216763;26;20246;-59
2024/04/24 03:27:08;;;;;;;3.77;2.37;;;;;21.30;99888.00;;;;2206104;26;20251;-60
2024/04/24 03:28:08;;;;;;;3.43;1.57;;;;;21.30;99889.00;;;;2205753;26;20245;-59
2024/04/24 03:29:09;;;;;;;3.03;1.93;;;;;21.30;99903.00;;;;2213514;26;21007;-59
2024/04/24 03:30:09;;;;;;;4.07;1.70;;;;;21.30;99887.00;;;;2226026;26;20835;-59
2024/04/24 03:31:09;;;;;;;4.37;2.07;;;;;20.90;99889.00;;;;2213767;26;20255;-59
2024/04/24 03:32:10;;;;;;;2.90;1.97;;;;;20.90;99895.00;;;;2206205;26;20259;-59
2024/04/24 03:33:10;;;;;;;4.30;2.20;;;;;21.30;99881.00;;;;2216575;26;20298;-59
2024/04/24 03:34:10;;;;;;;4.07;1.87;;;;;21.30;99880.00;;;;2212486;26;20329;-60
2024/04/24 03:35:11;;;;;;;3.87;1.97;;;;;21.30;99884.00;;;;2217000;26;20251;-59
2024/04/24 03:36:11;;;;;;;3.93;1.90;;;;;21.30;99887.00;;;;2213510;26;20293;-59
2024/04/24 03:37:12;;;;;;;4.50;2.03;;;;;21.30;99885.00;;;;2208010;26;20681;-60
2024/04/24 03:38:12;;;;;;;5.87;2.00;;;;;21.20;99874.00;;;;2223871;26;20250;-58
2024/04/24 03:39:12;;;;;;;3.40;1.90;;;;;21.30;99881.00;;;;2210994;26;20319;-59
2024/04/24 03:40:13;;;;;;;3.87;1.93;;;;;21.30;99881.00;;;;2229573;26;20246;-59
2024/04/24 03:41:13;;;;;;;3.17;1.93;;;;;21.20;99873.00;;;;2201435;26;20259;-59
2024/04/24 03:42:13;;;;;;;5.03;1.70;;;;;21.20;99877.00;;;;2204757;26;20295;-59
2024/04/24 03:43:14;;;;;;;3.87;1.70;;;;;21.20;99870.00;;;;2211482;26;20259;-60
2024/04/24 03:44:14;;;;;;;3.30;1.90;;;;;21.20;99882.00;;;;2199892;26;20298;-59
2024/04/24 03:45:14;;;;;;;3.80;1.83;;;;;21.20;99868.00;;;;2216083;26;20337;-60
2024/04/24 03:46:15;;;;;;;5.87;1.87;;;;;21.20;99874.00;;;;2212727;26;20290;-59
2024/04/24 03:47:15;;;;;;;3.70;1.63;;;;;21.20;99882.00;;;;2206922;26;20665;-60
2024/04/24 03:48:15;;;;;;;3.77;1.50;;;;;21.20;99876.00;;;;2217135;26;20760;-60
2024/04/24 03:49:16;;;;;;;3.20;1.47;;;;;21.20;99885.00;;;;2215465;26;20754;-59
2024/04/24 03:50:16;;;;;;;3.77;1.87;;;;;21.20;99876.00;;;;2215838;26;20253;-59
2024/04/24 03:51:17;;;;;;;3.50;1.50;;;;;21.20;99875.00;;;;2216782;26;20306;-59
2024/04/24 03:52:19;;;;;;;4.95;1.80;;;;;21.20;99875.00;;;;2205322;26;20864;-60
2024/04/24 03:53:19;;;;;;;2.60;1.52;;;;;21.30;99874.00;;;;2218629;26;20302;-59
2024/04/24 03:54:20;;;;;;;3.50;1.50;;;;;21.20;99873.00;;;;2204755;26;20259;-60
2024/04/24 03:55:20;;;;;;;3.97;1.70;;;;;21.20;99876.00;;;;2204056;26;20317;-60
2024/04/24 03:56:20;;;;;;;3.47;1.33;;;;;21.20;99874.00;;;;2224562;26;20243;-60
2024/04/24 03:57:21;;;;;;;3.20;1.50;;;;;21.20;99877.00;;;;2203609;26;20298;-59
2024/04/24 03:58:21;;;;;;;3.40;1.30;;;;;21.20;99874.00;;;;2225307;26;20247;-59
2024/04/24 03:59:21;;;;;;;3.00;1.43;;;;;21.20;99874.00;;;;2212512;26;20258;-60
2024/04/24 04:00:21;;;;;;;3.60;1.60;;;;;21.20;99869.00;;;;2213251;26;20255;-59
2024/04/24 04:01:25;;;;;;;4.23;1.73;;;;;21.20;99866.00;;;;2211407;26;20257;-59
2024/04/24 04:02:25;;;;;;;3.30;1.45;;;;;21.20;99870.00;;;;2204222;26;20302;-60
2024/04/24 04:03:25;;;;;;;3.13;1.77;;;;;21.20;99868.00;;;;2217245;26;20374;-60
2024/04/24 04:04:26;;;;;;;4.50;1.97;;;;;21.20;99871.00;;;;2215460;26;20298;-59
2024/04/24 04:05:26;;;;;;;4.00;1.93;;;;;21.20;99864.00;;;;2206784;26;20252;-59
2024/04/24 04:06:26;;;;;;;3.70;1.73;;;;;21.20;99868.00;;;;2217124;26;20247;-60
2024/04/24 04:07:27;;;;;;;4.23;1.67;;;;;21.20;99867.00;;;;2200614;26;20290;-59
2024/04/24 04:08:27;;;;;;;3.30;1.50;;;;;21.20;99870.00;;;;2215059;26;20255;-59
2024/04/24 04:09:27;;;;;;;3.17;1.30;;;;;21.20;99862.00;;;;2198615;26;20291;-60
2024/04/24 04:10:28;;;;;;;3.70;1.60;;;;;21.20;99878.00;;;;2204636;26;20256;-60
2024/04/24 04:11:28;;;;;;;4.37;1.43;;;;;21.20;99861.00;;;;2217596;26;20637;-59
2024/04/24 04:12:28;;;;;;;4.30;1.50;;;;;21.20;99862.00;;;;2205389;26;20293;-59
2024/04/24 04:13:29;;;;;;;3.97;1.70;;;;;21.10;99853.00;;;;2217591;26;20243;-59
2024/04/24 04:14:29;;;;;;;5.03;1.80;;;;;21.10;99854.00;;;;2212604;26;20259;-59
2024/04/24 04:15:29;;;;;;;3.10;1.47;;;;;21.10;99863.00;;;;2218565;26;20357;-59
2024/04/24 04:16:31;;;;;;;4.13;1.80;;;;;21.20;99853.00;;;;2216989;26;20255;-59
2024/04/24 04:17:32;;;;;;;3.80;1.50;;;;;21.20;99862.00;;;;2203046;26;20251;-59
2024/04/24 04:18:32;;;;;;;3.37;1.50;;;;;21.10;99857.00;;;;2206161;26;20256;-60
2024/04/24 04:19:33;;;;;;;3.73;1.50;;;;;21.10;99849.00;;;;2209313;26;20286;-59
2024/04/24 04:20:33;;;;;;;2.73;1.20;;;;;21.10;99848.00;;;;2217176;26;20474;-59
2024/04/24 04:21:33;;;;;;;3.27;1.20;;;;;21.10;99850.00;;;;2216145;26;20361;-59
2024/04/24 04:22:34;;;;;;;3.00;1.50;;;;;21.20;99851.00;;;;2206804;26;20264;-59
2024/04/24 04:23:34;;;;;;;3.07;1.20;;;;;21.10;99874.00;;;;2214755;26;20286;-59
2024/04/24 04:24:34;;;;;;;3.33;1.60;;;;;21.10;99846.00;;;;2216349;26;20701;-59
2024/04/24 04:25:35;;;;;;;4.43;2.10;;;;;21.10;99864.00;;;;2208461;26;21274;-59
2024/04/24 04:26:35;;;;;;;2.90;1.23;;;;;21.10;99840.00;;;;2213468;26;20838;-59
2024/04/24 04:27:35;;;;;;;3.10;1.33;;;;;21.10;99845.00;;;;2218805;26;20301;-60
2024/04/24 04:28:36;;;;;;;3.70;1.43;;;;;21.10;99845.00;;;;2216919;26;20309;-60
2024/04/24 04:29:36;;;;;;;3.00;1.27;;;;;21.20;99848.00;;;;2211397;26;20247;-59
2024/04/24 04:30:36;;;;;;;4.53;1.60;;;;;21.10;99843.00;;;;2216050;26;20260;-59
2024/04/24 04:31:37;;;;;;;3.17;1.40;;;;;21.10;99845.00;;;;2221151;26;20301;-58
2024/04/24 04:32:37;;;;;;;2.97;1.47;;;;;21.10;99848.00;;;;2214089;26;20250;-60
2024/04/24 04:33:37;;;;;;;5.20;1.83;;;;;21.10;99844.00;;;;2212255;26;20255;-59
2024/04/24 04:34:39;;;;;;;3.20;1.27;;;;;21.10;99849.00;;;;2217086;26;20252;-59
2024/04/24 04:35:40;;;;;;;2.63;1.30;;;;;21.10;99847.00;;;;2217015;26;20308;-60
2024/04/24 04:36:40;;;;;;;2.17;1.13;;;;;21.10;99848.00;;;;2218538;26;20247;-58
2024/04/24 04:37:40;;;;;;;2.80;1.27;;;;;21.10;99841.00;;;;2202785;26;20255;-59
2024/04/24 04:38:41;;;;;;;2.57;1.33;;;;;21.10;99839.00;;;;2212133;26;20303;-60
2024/04/24 04:39:41;;;;;;;3.57;1.57;;;;;21.10;99843.00;;;;2207554;26;20248;-58
2024/04/24 04:40:44;;;;;;;3.77;1.47;;;;;21.10;99847.00;;;;2207794;26;20354;-60
2024/04/24 04:41:44;;;;;;;2.97;1.30;;;;;21.10;99849.00;;;;2208926;26;20255;-59
2024/04/24 04:42:45;;;;;;;2.70;1.47;;;;;21.10;99843.00;;;;2216245;26;20299;-59
2024/04/24 04:43:45;;;;;;;3.00;1.00;;;;;21.10;99851.00;;;;2227367;26;20243;-60
2024/04/24 04:44:46;;;;;;;3.00;1.20;;;;;21.10;99852.00;;;;2218322;26;20286;-60
2024/04/24 04:45:46;;;;;;;3.10;0.90;;;;;21.10;99843.00;;;;2214966;26;20305;-59
2024/04/24 04:46:46;;;;;;;2.40;1.10;;;;;21.10;99854.00;;;;2208547;26;20623;-59
2024/04/24 04:47:46;;;;;;;2.53;1.13;;;;;21.10;99849.00;;;;2219005;26;20247;-59
2024/04/24 04:48:47;;;;;;;2.57;1.27;;;;;21.10;99852.00;;;;2226444;26;20282;-59
2024/04/24 04:49:48;;;;;;;3.40;1.30;;;;;21.10;99850.00;;;;2214285;26;20239;-59
2024/04/24 04:50:48;;;;;;;2.70;1.33;;;;;21.10;99841.00;;;;2216585;26;20356;-59
2024/04/24 04:51:49;;;;;;;3.70;1.43;;;;;21.10;99857.00;;;;2216706;26;20251;-60
2024/04/24 04:52:49;;;;;;;2.07;1.00;;;;;21.10;99847.00;;;;2221691;26;20250;-59
2024/04/24 04:53:50;;;;;;;4.47;1.20;;;;;21.10;99844.00;;;;2226559;26;20625;-59
2024/04/24 04:54:51;;;;;;;3.80;1.58;;;;;21.10;99840.00;;;;2216569;26;20439;-59
2024/04/24 04:55:51;;;;;;;3.27;1.20;;;;;21.10;99844.00;;;;2221715;26;20282;-59
2024/04/24 04:56:52;;;;;;;3.77;1.20;;;;;21.10;99848.00;;;;2215159;26;20477;-59
2024/04/24 04:57:52;;;;;;;4.80;1.33;;;;;21.10;99838.00;;;;2217640;26;20294;-59
2024/04/24 04:58:53;;;;;;;2.97;1.03;;;;;21.10;99835.00;;;;2210218;26;20720;-59
2024/04/24 04:59:53;;;;;;;3.27;1.40;;;;;21.10;99839.00;;;;2215097;26;20248;-59
2024/04/24 05:00:53;;;;;;;5.70;1.30;;;;;21.10;99840.00;;;;2223610;26;20250;-59
2024/04/24 05:01:54;;;;;;;3.03;1.43;;;;;21.10;99836.00;;;;2213641;26;20302;-59
2024/04/24 05:02:54;;;;;;;2.87;1.20;;;;;21.10;99851.00;;;;2218458;26;21204;-59
2024/04/24 05:03:55;;;;;;;2.63;0.97;;;;;21.10;99837.00;;;;2217179;26;21251;-59